sensor_id;sensor_type;location;lat;lon;timestamp;pressure;altitude;pressure_sealevel;temperature;humidity
3844;BME280;1937;51.444;6.484;2022-07-10T00:01:41;68264.84;;;15.95;80.46
3844;BME280;1937;51.444;6.484;2022-07-10T00:04:07;68282.16;;;15.96;80.41
3844;BME280;1937;51.444;6.484;2022-07-10T00:06:34;68216.69;;;15.80;80.61
3844;BME280;1937;51.444;6.484;2022-07-10T00:09:01;68222.38;;;15.76;81.78
3844;BME280;1937;51.444;6.484;2022-07-10T00:11:27;68275.13;;;15.90;80.94
3844;BME280;1937;51.444;6.484;2022-07-10T00:13:54;68340.31;;;16.04;80.43
3844;BME280;1937;51.444;6.484;2022-07-10T00:16:20;68242.31;;;15.93;80.56
3844;BME280;1937;51.444;6.484;2022-07-10T00:18:48;68286.94;;;16.05;80.19
3844;BME280;1937;51.444;6.484;2022-07-10T00:21:15;68327.34;;;16.20;80.00
3844;BME280;1937;51.444;6.484;2022-07-10T00:23:42;68250.25;;;15.87;81.16
3844;BME280;1937;51.444;6.484;2022-07-10T00:26:09;68314.25;;;16.00;81.13
3844;BME280;1937;51.444;6.484;2022-07-10T00:28:35;68250.84;;;15.87;81.35
3844;BME280;1937;51.444;6.484;2022-07-10T00:31:03;68326.56;;;15.94;81.37
3844;BME280;1937;51.444;6.484;2022-07-10T00:33:29;68362.78;;;16.17;80.66
3844;BME280;1937;51.444;6.484;2022-07-10T00:35:58;68335.72;;;16.05;80.85
3844;BME280;1937;51.444;6.484;2022-07-10T00:38:25;68277.06;;;15.85;81.80
3844;BME280;1937;51.444;6.484;2022-07-10T00:40:51;68381.19;;;16.15;80.13
3844;BME280;1937;51.444;6.484;2022-07-10T00:43:19;68344.75;;;16.10;80.03
3844;BME280;1937;51.444;6.484;2022-07-10T00:45:45;68334.88;;;16.06;80.45
3844;BME280;1937;51.444;6.484;2022-07-10T00:48:12;68419.34;;;16.32;79.12
3844;BME280;1937;51.444;6.484;2022-07-10T00:50:39;68330.34;;;16.11;79.57
3844;BME280;1937;51.444;6.484;2022-07-10T00:53:08;68335.47;;;16.07;80.07
3844;BME280;1937;51.444;6.484;2022-07-10T00:55:35;68369.91;;;16.27;79.41
3844;BME280;1937;51.444;6.484;2022-07-10T00:58:06;68385.31;;;16.18;79.92
3844;BME280;1937;51.444;6.484;2022-07-10T01:00:33;68369.66;;;16.14;79.84
3844;BME280;1937;51.444;6.484;2022-07-10T01:03:03;68375.75;;;16.17;79.41
3844;BME280;1937;51.444;6.484;2022-07-10T01:05:29;68349.19;;;16.01;80.40
3844;BME280;1937;51.444;6.484;2022-07-10T01:07:56;68375.69;;;16.12;79.83
3844;BME280;1937;51.444;6.484;2022-07-10T01:10:24;68337.38;;;16.02;79.70
3844;BME280;1937;51.444;6.484;2022-07-10T01:12:51;68356.56;;;16.09;78.95
3844;BME280;1937;51.444;6.484;2022-07-10T01:15:18;68409.63;;;16.21;79.04
3844;BME280;1937;51.444;6.484;2022-07-10T01:17:45;68355.56;;;16.02;80.00
3844;BME280;1937;51.444;6.484;2022-07-10T01:20:14;68418.53;;;16.33;78.93
3844;BME280;1937;51.444;6.484;2022-07-10T01:22:42;68405.00;;;16.22;80.16
3844;BME280;1937;51.444;6.484;2022-07-10T01:25:09;68430.84;;;16.28;80.96
3844;BME280;1937;51.444;6.484;2022-07-10T01:27:37;68357.22;;;15.98;82.18
3844;BME280;1937;51.444;6.484;2022-07-10T01:30:04;68423.03;;;16.13;82.03
3844;BME280;1937;51.444;6.484;2022-07-10T01:32:36;68429.56;;;16.07;82.68
3844;BME280;1937;51.444;6.484;2022-07-10T01:35:04;68446.66;;;16.11;82.32
3844;BME280;1937;51.444;6.484;2022-07-10T01:37:31;68491.63;;;16.36;81.51
3844;BME280;1937;51.444;6.484;2022-07-10T01:39:59;68466.38;;;16.30;81.57
3844;BME280;1937;51.444;6.484;2022-07-10T01:42:25;68476.69;;;16.25;81.92
3844;BME280;1937;51.444;6.484;2022-07-10T01:44:52;68481.09;;;16.16;82.04
3844;BME280;1937;51.444;6.484;2022-07-10T01:47:20;68459.63;;;16.11;82.14
3844;BME280;1937;51.444;6.484;2022-07-10T01:49:49;68453.94;;;16.15;82.05
3844;BME280;1937;51.444;6.484;2022-07-10T01:52:16;68502.66;;;16.25;81.27
3844;BME280;1937;51.444;6.484;2022-07-10T01:54:42;68452.09;;;16.09;81.94
3844;BME280;1937;51.444;6.484;2022-07-10T01:57:10;68490.25;;;16.26;81.75
3844;BME280;1937;51.444;6.484;2022-07-10T01:59:37;68493.50;;;16.15;81.91
3844;BME280;1937;51.444;6.484;2022-07-10T02:02:04;68519.81;;;16.18;81.62
3844;BME280;1937;51.444;6.484;2022-07-10T02:04:30;68444.34;;;15.97;82.75
3844;BME280;1937;51.444;6.484;2022-07-10T02:07:08;68469.16;;;15.96;83.43
3844;BME280;1937;51.444;6.484;2022-07-10T02:09:35;68489.09;;;15.98;82.84
3844;BME280;1937;51.444;6.484;2022-07-10T02:12:03;68363.88;;;15.55;84.69
3844;BME280;1937;51.444;6.484;2022-07-10T02:14:31;68432.06;;;15.76;83.60
3844;BME280;1937;51.444;6.484;2022-07-10T02:16:58;68404.94;;;15.75;83.92
3844;BME280;1937;51.444;6.484;2022-07-10T02:19:25;68459.06;;;15.83;83.38
3844;BME280;1937;51.444;6.484;2022-07-10T02:21:51;68449.72;;;15.64;84.07
3844;BME280;1937;51.444;6.484;2022-07-10T02:24:18;68451.81;;;15.68;84.18
3844;BME280;1937;51.444;6.484;2022-07-10T02:26:45;68421.94;;;15.47;85.45
3844;BME280;1937;51.444;6.484;2022-07-10T02:29:11;68498.31;;;15.70;84.55
3844;BME280;1937;51.444;6.484;2022-07-10T02:31:39;68498.53;;;15.68;85.13
3844;BME280;1937;51.444;6.484;2022-07-10T02:34:06;68545.22;;;15.79;84.46
3844;BME280;1937;51.444;6.484;2022-07-10T02:36:33;68511.50;;;15.68;84.24
3844;BME280;1937;51.444;6.484;2022-07-10T02:39:00;68533.00;;;15.62;85.21
3844;BME280;1937;51.444;6.484;2022-07-10T02:41:27;68523.81;;;15.63;85.56
3844;BME280;1937;51.444;6.484;2022-07-10T02:43:53;68555.19;;;15.72;84.66
3844;BME280;1937;51.444;6.484;2022-07-10T02:46:20;68507.31;;;15.60;85.41
3844;BME280;1937;51.444;6.484;2022-07-10T02:48:48;68478.25;;;15.64;85.45
3844;BME280;1937;51.444;6.484;2022-07-10T02:51:15;68578.69;;;15.66;85.48
3844;BME280;1937;51.444;6.484;2022-07-10T02:53:41;68599.44;;;15.66;85.82
3844;BME280;1937;51.444;6.484;2022-07-10T02:56:08;68563.56;;;15.62;85.98
3844;BME280;1937;51.444;6.484;2022-07-10T02:58:35;68567.13;;;15.53;86.50
3844;BME280;1937;51.444;6.484;2022-07-10T03:01:04;68575.63;;;15.59;86.10
3844;BME280;1937;51.444;6.484;2022-07-10T03:03:31;68598.50;;;15.51;86.37
3844;BME280;1937;51.444;6.484;2022-07-10T03:05:58;68570.22;;;15.27;87.61
3844;BME280;1937;51.444;6.484;2022-07-10T03:08:25;68639.09;;;15.37;87.84
3844;BME280;1937;51.444;6.484;2022-07-10T03:10:52;68603.72;;;15.29;87.98
3844;BME280;1937;51.444;6.484;2022-07-10T03:13:19;68608.81;;;15.13;89.08
3844;BME280;1937;51.444;6.484;2022-07-10T03:15:46;68635.78;;;15.21;89.14
3844;BME280;1937;51.444;6.484;2022-07-10T03:18:12;68624.81;;;15.09;89.09
3844;BME280;1937;51.444;6.484;2022-07-10T03:20:39;68694.13;;;15.04;90.13
3844;BME280;1937;51.444;6.484;2022-07-10T03:23:07;68658.63;;;14.92;90.72
3844;BME280;1937;51.444;6.484;2022-07-10T03:25:33;68680.19;;;14.79;92.58
3844;BME280;1937;51.444;6.484;2022-07-10T03:28:00;68654.69;;;14.53;93.01
3844;BME280;1937;51.444;6.484;2022-07-10T03:30:27;68772.25;;;14.56;94.66
3844;BME280;1937;51.444;6.484;2022-07-10T03:32:53;68853.38;;;14.72;94.00
3844;BME280;1937;51.444;6.484;2022-07-10T03:35:20;68924.50;;;14.91;93.22
3844;BME280;1937;51.444;6.484;2022-07-10T03:37:47;68936.41;;;14.83;93.29
3844;BME280;1937;51.444;6.484;2022-07-10T03:40:15;68949.63;;;14.92;92.82
3844;BME280;1937;51.444;6.484;2022-07-10T03:42:41;68924.44;;;14.97;91.97
3844;BME280;1937;51.444;6.484;2022-07-10T03:45:08;68950.75;;;14.82;93.05
3844;BME280;1937;51.444;6.484;2022-07-10T03:47:35;69061.22;;;15.03;92.08
3844;BME280;1937;51.444;6.484;2022-07-10T03:50:02;69075.59;;;15.02;92.51
3844;BME280;1937;51.444;6.484;2022-07-10T03:52:29;69050.84;;;15.03;92.16
3844;BME280;1937;51.444;6.484;2022-07-10T03:54:56;69048.47;;;15.01;92.09
3844;BME280;1937;51.444;6.484;2022-07-10T03:57:24;69072.50;;;15.13;92.03
3844;BME280;1937;51.444;6.484;2022-07-10T04:00:09;69037.34;;;14.96;92.21
3844;BME280;1937;51.444;6.484;2022-07-10T04:02:36;69065.38;;;15.07;92.23
3844;BME280;1937;51.444;6.484;2022-07-10T04:05:05;69092.19;;;14.99;91.93
3844;BME280;1937;51.444;6.484;2022-07-10T04:07:31;69067.00;;;15.04;92.08
3844;BME280;1937;51.444;6.484;2022-07-10T04:09:58;69084.41;;;14.99;92.38
3844;BME280;1937;51.444;6.484;2022-07-10T04:12:26;69081.28;;;14.92;92.82
3844;BME280;1937;51.444;6.484;2022-07-10T04:14:53;69194.38;;;15.20;92.03
3844;BME280;1937;51.444;6.484;2022-07-10T04:17:20;69042.97;;;14.92;91.77
3844;BME280;1937;51.444;6.484;2022-07-10T04:19:46;69124.38;;;15.13;91.48
3844;BME280;1937;51.444;6.484;2022-07-10T04:22:13;69102.16;;;14.79;94.13
3844;BME280;1937;51.444;6.484;2022-07-10T04:24:40;69227.22;;;15.03;92.60
3844;BME280;1937;51.444;6.484;2022-07-10T04:27:06;69240.63;;;15.24;92.33
3844;BME280;1937;51.444;6.484;2022-07-10T04:29:34;69177.06;;;15.11;91.84
3844;BME280;1937;51.444;6.484;2022-07-10T04:32:01;69324.25;;;15.55;90.81
3844;BME280;1937;51.444;6.484;2022-07-10T04:34:27;69299.03;;;15.60;90.35
3844;BME280;1937;51.444;6.484;2022-07-10T04:36:54;69281.31;;;15.74;89.52
3844;BME280;1937;51.444;6.484;2022-07-10T04:39:21;69206.44;;;15.52;90.56
3844;BME280;1937;51.444;6.484;2022-07-10T04:41:47;69243.72;;;15.79;89.88
3844;BME280;1937;51.444;6.484;2022-07-10T04:44:14;69218.09;;;15.64;90.25
3844;BME280;1937;51.444;6.484;2022-07-10T04:46:42;69260.84;;;15.65;90.06
3844;BME280;1937;51.444;6.484;2022-07-10T04:49:09;69346.94;;;16.10;87.93
3844;BME280;1937;51.444;6.484;2022-07-10T04:51:35;69279.09;;;16.18;87.58
3844;BME280;1937;51.444;6.484;2022-07-10T04:54:02;69280.22;;;16.26;86.84
3844;BME280;1937;51.444;6.484;2022-07-10T04:56:29;69170.50;;;16.08;87.14
3844;BME280;1937;51.444;6.484;2022-07-10T04:58:55;69104.53;;;15.58;89.48
3844;BME280;1937;51.444;6.484;2022-07-10T05:01:22;69169.59;;;15.21;93.95
3844;BME280;1937;51.444;6.484;2022-07-10T05:03:50;69249.00;;;15.48;91.39
3844;BME280;1937;51.444;6.484;2022-07-10T05:06:16;69338.19;;;15.82;89.81
3844;BME280;1937;51.444;6.484;2022-07-10T05:08:43;69268.94;;;15.74;90.58
3844;BME280;1937;51.444;6.484;2022-07-10T05:11:10;69354.56;;;15.81;90.92
3844;BME280;1937;51.444;6.484;2022-07-10T05:13:37;69399.06;;;16.14;88.63
3844;BME280;1937;51.444;6.484;2022-07-10T05:16:04;69414.00;;;16.45;87.14
3844;BME280;1937;51.444;6.484;2022-07-10T05:18:31;69190.16;;;15.82;89.19
3844;BME280;1937;51.444;6.484;2022-07-10T05:20:59;69281.56;;;16.14;88.01
3844;BME280;1937;51.444;6.484;2022-07-10T05:23:25;69183.84;;;15.92;87.60
3844;BME280;1937;51.444;6.484;2022-07-10T05:25:52;69209.47;;;16.08;87.59
3844;BME280;1937;51.444;6.484;2022-07-10T05:28:18;69209.75;;;16.17;86.97
3844;BME280;1937;51.444;6.484;2022-07-10T05:30:45;69234.25;;;16.07;88.18
3844;BME280;1937;51.444;6.484;2022-07-10T05:33:12;69201.69;;;16.08;87.77
3844;BME280;1937;51.444;6.484;2022-07-10T05:35:38;69103.94;;;15.75;88.24
3844;BME280;1937;51.444;6.484;2022-07-10T05:38:06;69284.00;;;16.27;87.24
3844;BME280;1937;51.444;6.484;2022-07-10T05:40:33;69256.75;;;16.32;85.95
3844;BME280;1937;51.444;6.484;2022-07-10T05:43:00;69109.63;;;16.00;86.59
3844;BME280;1937;51.444;6.484;2022-07-10T05:45:28;69213.16;;;16.15;87.41
3844;BME280;1937;51.444;6.484;2022-07-10T05:47:57;69169.75;;;16.03;87.00
3844;BME280;1937;51.444;6.484;2022-07-10T05:50:25;69264.41;;;16.46;85.08
3844;BME280;1937;51.444;6.484;2022-07-10T05:52:53;69236.28;;;16.59;85.17
3844;BME280;1937;51.444;6.484;2022-07-10T05:55:24;69258.34;;;16.71;84.18
3844;BME280;1937;51.444;6.484;2022-07-10T05:57:52;69201.13;;;16.54;85.39
3844;BME280;1937;51.444;6.484;2022-07-10T06:00:21;69205.59;;;16.66;84.39
3844;BME280;1937;51.444;6.484;2022-07-10T06:02:50;69263.22;;;16.80;84.37
3844;BME280;1937;51.444;6.484;2022-07-10T06:05:19;69211.19;;;16.80;83.83
3844;BME280;1937;51.444;6.484;2022-07-10T06:07:49;69213.44;;;17.06;82.98
3844;BME280;1937;51.444;6.484;2022-07-10T06:10:17;69246.91;;;17.04;82.20
3844;BME280;1937;51.444;6.484;2022-07-10T06:12:47;69117.22;;;16.31;85.94
3844;BME280;1937;51.444;6.484;2022-07-10T06:15:16;69203.94;;;16.69;84.25
3844;BME280;1937;51.444;6.484;2022-07-10T06:17:44;69234.91;;;16.89;83.59
3844;BME280;1937;51.444;6.484;2022-07-10T06:20:13;69288.31;;;17.06;83.13
3844;BME280;1937;51.444;6.484;2022-07-10T06:22:42;69161.22;;;16.62;84.17
3844;BME280;1937;51.444;6.484;2022-07-10T06:25:12;69222.44;;;16.78;84.16
3844;BME280;1937;51.444;6.484;2022-07-10T06:27:41;69173.78;;;16.66;84.29
3844;BME280;1937;51.444;6.484;2022-07-10T06:30:12;69253.63;;;16.96;82.73
3844;BME280;1937;51.444;6.484;2022-07-10T06:32:41;69199.97;;;16.82;83.41
3844;BME280;1937;51.444;6.484;2022-07-10T06:35:12;69235.84;;;16.92;82.46
3844;BME280;1937;51.444;6.484;2022-07-10T06:37:41;69204.59;;;17.10;82.38
3844;BME280;1937;51.444;6.484;2022-07-10T06:40:12;69291.13;;;17.22;81.44
3844;BME280;1937;51.444;6.484;2022-07-10T06:42:41;69110.22;;;16.76;83.42
3844;BME280;1937;51.444;6.484;2022-07-10T06:45:11;69140.41;;;16.91;82.16
3844;BME280;1937;51.444;6.484;2022-07-10T06:47:41;69211.25;;;17.20;80.91
3844;BME280;1937;51.444;6.484;2022-07-10T06:50:26;69163.00;;;16.92;82.95
3844;BME280;1937;51.444;6.484;2022-07-10T06:52:57;69246.09;;;17.34;81.59
3844;BME280;1937;51.444;6.484;2022-07-10T06:55:27;69153.66;;;17.29;80.80
3844;BME280;1937;51.444;6.484;2022-07-10T06:57:55;69179.38;;;17.37;80.31
3844;BME280;1937;51.444;6.484;2022-07-10T07:00:26;69180.50;;;17.27;80.88
3844;BME280;1937;51.444;6.484;2022-07-10T07:02:54;69129.97;;;17.19;81.44
3844;BME280;1937;51.444;6.484;2022-07-10T07:05:23;69176.38;;;17.24;82.35
3844;BME280;1937;51.444;6.484;2022-07-10T07:07:51;69246.72;;;17.46;80.80
3844;BME280;1937;51.444;6.484;2022-07-10T07:10:19;69251.44;;;17.68;79.70
3844;BME280;1937;51.444;6.484;2022-07-10T07:12:48;69150.28;;;17.52;80.15
3844;BME280;1937;51.444;6.484;2022-07-10T07:15:18;69204.50;;;17.56;79.68
3844;BME280;1937;51.444;6.484;2022-07-10T07:17:51;69175.38;;;17.49;80.50
3844;BME280;1937;51.444;6.484;2022-07-10T07:20:35;69262.47;;;17.79;78.94
3844;BME280;1937;51.444;6.484;2022-07-10T07:23:21;69308.19;;;18.07;78.18
3844;BME280;1937;51.444;6.484;2022-07-10T07:25:50;69344.25;;;18.33;77.86
3844;BME280;1937;51.444;6.484;2022-07-10T07:28:25;69307.41;;;18.31;77.48
3844;BME280;1937;51.444;6.484;2022-07-10T07:30:53;69236.41;;;18.19;77.47
3844;BME280;1937;51.444;6.484;2022-07-10T07:33:23;69210.31;;;18.08;76.91
3844;BME280;1937;51.444;6.484;2022-07-10T07:35:51;69172.63;;;17.96;77.30
3844;BME280;1937;51.444;6.484;2022-07-10T07:38:20;69151.78;;;17.96;77.34
3844;BME280;1937;51.444;6.484;2022-07-10T07:40:48;69175.97;;;18.01;77.82
3844;BME280;1937;51.444;6.484;2022-07-10T07:43:16;69163.97;;;17.97;76.81
3844;BME280;1937;51.444;6.484;2022-07-10T07:45:44;69168.50;;;18.15;76.43
3844;BME280;1937;51.444;6.484;2022-07-10T07:48:15;69064.38;;;17.86;77.49
3844;BME280;1937;51.444;6.484;2022-07-10T07:50:45;69106.75;;;17.91;77.18
3844;BME280;1937;51.444;6.484;2022-07-10T07:53:13;69150.00;;;18.06;76.81
3844;BME280;1937;51.444;6.484;2022-07-10T07:55:41;69133.41;;;17.91;77.64
3844;BME280;1937;51.444;6.484;2022-07-10T07:58:09;69129.16;;;17.83;78.49
3844;BME280;1937;51.444;6.484;2022-07-10T08:00:38;69179.72;;;17.91;78.10
3844;BME280;1937;51.444;6.484;2022-07-10T08:03:06;69062.44;;;17.57;78.50
3844;BME280;1937;51.444;6.484;2022-07-10T08:05:36;69021.72;;;17.27;81.00
3844;BME280;1937;51.444;6.484;2022-07-10T08:08:06;69162.91;;;17.79;78.72
3844;BME280;1937;51.444;6.484;2022-07-10T08:10:36;69083.03;;;17.37;80.23
3844;BME280;1937;51.444;6.484;2022-07-10T08:13:06;69086.13;;;17.44;80.08
3844;BME280;1937;51.444;6.484;2022-07-10T08:15:35;69110.50;;;17.36;81.50
3844;BME280;1937;51.444;6.484;2022-07-10T08:18:04;69228.53;;;17.57;81.63
3844;BME280;1937;51.444;6.484;2022-07-10T08:20:34;69197.88;;;17.57;80.79
3844;BME280;1937;51.444;6.484;2022-07-10T08:23:02;69213.19;;;17.66;80.48
3844;BME280;1937;51.444;6.484;2022-07-10T08:25:32;69180.47;;;17.56;80.41
3844;BME280;1937;51.444;6.484;2022-07-10T08:28:02;69219.53;;;17.56;81.31
3844;BME280;1937;51.444;6.484;2022-07-10T08:30:32;69190.94;;;17.38;82.00
3844;BME280;1937;51.444;6.484;2022-07-10T08:33:01;69170.19;;;17.20;83.37
3844;BME280;1937;51.444;6.484;2022-07-10T08:35:29;69290.81;;;17.59;81.69
3844;BME280;1937;51.444;6.484;2022-07-10T08:37:58;69194.81;;;17.22;84.71
3844;BME280;1937;51.444;6.484;2022-07-10T08:40:28;69211.28;;;17.02;87.54
3844;BME280;1937;51.444;6.484;2022-07-10T08:43:00;69434.06;;;17.24;88.47
3844;BME280;1937;51.444;6.484;2022-07-10T08:45:32;69563.16;;;17.27;90.94
3844;BME280;1937;51.444;6.484;2022-07-10T08:48:03;69628.81;;;16.42;98.72
3844;BME280;1937;51.444;6.484;2022-07-10T08:50:37;69977.56;;;16.44;100.00
3844;BME280;1937;51.444;6.484;2022-07-10T08:53:12;70374.47;;;16.48;100.00
3844;BME280;1937;51.444;6.484;2022-07-10T08:55:43;70831.84;;;16.52;100.00
3844;BME280;1937;51.444;6.484;2022-07-10T08:58:14;71163.94;;;17.03;100.00
3844;BME280;1937;51.444;6.484;2022-07-10T09:00:43;71099.09;;;16.92;100.00
3844;BME280;1937;51.444;6.484;2022-07-10T09:03:12;71388.31;;;17.05;100.00
3844;BME280;1937;51.444;6.484;2022-07-10T09:05:40;71487.72;;;17.25;100.00
3844;BME280;1937;51.444;6.484;2022-07-10T09:08:23;71270.00;;;16.87;100.00
3844;BME280;1937;51.444;6.484;2022-07-10T09:10:52;71497.22;;;16.86;100.00
3844;BME280;1937;51.444;6.484;2022-07-10T09:13:21;71759.81;;;17.26;100.00
3844;BME280;1937;51.444;6.484;2022-07-10T09:15:51;71838.66;;;17.44;100.00
3844;BME280;1937;51.444;6.484;2022-07-10T09:18:23;71971.09;;;17.41;100.00
3844;BME280;1937;51.444;6.484;2022-07-10T09:20:52;71980.09;;;17.14;100.00
3844;BME280;1937;51.444;6.484;2022-07-10T09:23:21;72262.50;;;17.28;100.00
3844;BME280;1937;51.444;6.484;2022-07-10T09:25:53;72382.59;;;17.35;100.00
3844;BME280;1937;51.444;6.484;2022-07-10T09:28:24;72413.97;;;17.22;100.00
3844;BME280;1937;51.444;6.484;2022-07-10T09:30:53;72783.59;;;17.51;100.00
3844;BME280;1937;51.444;6.484;2022-07-10T09:33:28;72528.88;;;17.18;100.00
3844;BME280;1937;51.444;6.484;2022-07-10T09:36:02;72450.47;;;17.22;100.00
3844;BME280;1937;51.444;6.484;2022-07-10T09:38:55;72708.88;;;17.48;100.00
3844;BME280;1937;51.444;6.484;2022-07-10T09:41:27;73011.53;;;18.03;100.00
3844;BME280;1937;51.444;6.484;2022-07-10T09:43:59;72582.94;;;17.83;100.00
3844;BME280;1937;51.444;6.484;2022-07-10T09:46:30;72431.72;;;17.73;100.00
3844;BME280;1937;51.444;6.484;2022-07-10T09:49:09;73022.00;;;18.26;100.00
3844;BME280;1937;51.444;6.484;2022-07-10T09:51:40;72698.00;;;18.32;100.00
3844;BME280;1937;51.444;6.484;2022-07-10T09:54:09;72256.59;;;18.28;100.00
3844;BME280;1937;51.444;6.484;2022-07-10T09:56:41;71877.47;;;18.29;99.59
3844;BME280;1937;51.444;6.484;2022-07-10T09:59:13;71659.09;;;18.02;100.00
3844;BME280;1937;51.444;6.484;2022-07-10T10:01:45;72132.53;;;18.48;100.00
3844;BME280;1937;51.444;6.484;2022-07-10T10:04:19;72006.63;;;18.48;100.00
3844;BME280;1937;51.444;6.484;2022-07-10T10:06:49;72007.09;;;18.95;99.59
3844;BME280;1937;51.444;6.484;2022-07-10T10:09:24;71926.59;;;19.23;98.03
3844;BME280;1937;51.444;6.484;2022-07-10T10:11:59;71800.97;;;19.60;95.59
3844;BME280;1937;51.444;6.484;2022-07-10T10:14:32;71625.47;;;20.27;92.85
3844;BME280;1937;51.444;6.484;2022-07-10T10:17:03;71355.69;;;20.81;88.51
3844;BME280;1937;51.444;6.484;2022-07-10T10:19:33;70720.69;;;19.86;89.41
3844;BME280;1937;51.444;6.484;2022-07-10T10:22:45;70702.38;;;19.79;89.53
3844;BME280;1937;51.444;6.484;2022-07-10T10:25:15;70628.44;;;19.33;91.25
3844;BME280;1937;51.444;6.484;2022-07-10T10:27:44;70603.94;;;19.30;91.59
3844;BME280;1937;51.444;6.484;2022-07-10T10:30:14;70771.81;;;19.43;91.10
3844;BME280;1937;51.444;6.484;2022-07-10T10:32:43;70600.72;;;19.36;90.00
3844;BME280;1937;51.444;6.484;2022-07-10T10:35:12;70701.97;;;19.77;89.62
3844;BME280;1937;51.444;6.484;2022-07-10T10:37:59;70419.63;;;19.50;87.42
3844;BME280;1937;51.444;6.484;2022-07-10T10:40:35;70444.38;;;19.25;90.36
3844;BME280;1937;51.444;6.484;2022-07-10T10:43:20;70306.59;;;18.93;90.67
3844;BME280;1937;51.444;6.484;2022-07-10T10:45:52;70295.53;;;18.92;88.74
3844;BME280;1937;51.444;6.484;2022-07-10T10:48:21;70060.97;;;18.44;89.14
3844;BME280;1937;51.444;6.484;2022-07-10T10:50:52;70211.84;;;18.68;90.48
3844;BME280;1937;51.444;6.484;2022-07-10T10:53:21;70275.66;;;19.02;88.11
3844;BME280;1937;51.444;6.484;2022-07-10T10:56:21;70352.34;;;19.18;89.33
3844;BME280;1937;51.444;6.484;2022-07-10T10:58:49;70244.88;;;19.15;87.79
3844;BME280;1937;51.444;6.484;2022-07-10T11:01:30;70262.94;;;19.17;87.77
3844;BME280;1937;51.444;6.484;2022-07-10T11:04:18;70254.78;;;18.82;90.97
3844;BME280;1937;51.444;6.484;2022-07-10T11:06:49;70487.06;;;18.62;95.43
3844;BME280;1937;51.444;6.484;2022-07-10T11:09:25;70668.22;;;18.72;94.74
3844;BME280;1937;51.444;6.484;2022-07-10T11:12:02;70843.84;;;18.92;93.36
3844;BME280;1937;51.444;6.484;2022-07-10T11:14:32;70827.94;;;19.16;91.28
3844;BME280;1937;51.444;6.484;2022-07-10T11:17:03;70657.94;;;19.18;91.00
3844;BME280;1937;51.444;6.484;2022-07-10T11:19:33;70682.09;;;19.25;91.28
3844;BME280;1937;51.444;6.484;2022-07-10T11:25:06;70551.75;;;18.75;91.73
3844;BME280;1937;51.444;6.484;2022-07-10T11:27:55;70552.56;;;18.80;92.18
3844;BME280;1937;51.444;6.484;2022-07-10T11:30:28;70501.78;;;18.79;91.73
3844;BME280;1937;51.444;6.484;2022-07-10T11:33:05;70663.66;;;18.92;91.97
3844;BME280;1937;51.444;6.484;2022-07-10T11:35:34;70645.06;;;19.09;90.01
3844;BME280;1937;51.444;6.484;2022-07-10T11:38:03;70698.16;;;19.76;87.75
3844;BME280;1937;51.444;6.484;2022-07-10T11:40:37;70490.81;;;19.77;86.55
3844;BME280;1937;51.444;6.484;2022-07-10T11:43:06;70448.72;;;19.99;85.74
3844;BME280;1937;51.444;6.484;2022-07-10T11:45:37;70267.25;;;19.58;85.36
3844;BME280;1937;51.444;6.484;2022-07-10T11:48:07;70328.31;;;19.75;85.73
3844;BME280;1937;51.444;6.484;2022-07-10T11:50:46;70391.13;;;20.19;83.26
3844;BME280;1937;51.444;6.484;2022-07-10T11:53:24;70066.91;;;19.44;85.16
3844;BME280;1937;51.444;6.484;2022-07-10T11:55:53;70135.63;;;19.49;85.94
3844;BME280;1937;51.444;6.484;2022-07-10T11:58:23;70180.00;;;19.11;89.41
3844;BME280;1937;51.444;6.484;2022-07-10T12:01:02;70262.41;;;18.91;90.56
3844;BME280;1937;51.444;6.484;2022-07-10T12:03:34;70583.16;;;19.01;93.47
3844;BME280;1937;51.444;6.484;2022-07-10T12:06:05;70725.94;;;18.90;94.80
3844;BME280;1937;51.444;6.484;2022-07-10T12:08:42;70962.41;;;19.45;92.34
3844;BME280;1937;51.444;6.484;2022-07-10T12:11:15;70935.84;;;19.71;90.60
3844;BME280;1937;51.444;6.484;2022-07-10T12:13:46;70868.84;;;20.09;89.50
3844;BME280;1937;51.444;6.484;2022-07-10T12:16:16;71009.59;;;20.85;87.87
3844;BME280;1937;51.444;6.484;2022-07-10T12:18:47;70730.31;;;21.08;83.12
3844;BME280;1937;51.444;6.484;2022-07-10T12:21:16;70376.63;;;20.70;81.88
3844;BME280;1937;51.444;6.484;2022-07-10T12:23:46;70225.63;;;20.62;80.46
3844;BME280;1937;51.444;6.484;2022-07-10T12:26:17;70353.00;;;21.14;78.23
3844;BME280;1937;51.444;6.484;2022-07-10T12:28:55;70259.28;;;21.15;79.10
3844;BME280;1937;51.444;6.484;2022-07-10T12:31:26;70218.56;;;21.16;77.43
3844;BME280;1937;51.444;6.484;2022-07-10T12:33:58;70008.34;;;20.62;78.34
3844;BME280;1937;51.444;6.484;2022-07-10T12:36:41;70088.41;;;20.72;80.01
3844;BME280;1937;51.444;6.484;2022-07-10T12:39:11;69937.19;;;20.37;80.79
3844;BME280;1937;51.444;6.484;2022-07-10T12:41:54;70300.03;;;21.56;76.85
3844;BME280;1937;51.444;6.484;2022-07-10T12:44:40;70684.91;;;23.18;71.55
3844;BME280;1937;51.444;6.484;2022-07-10T12:47:10;70529.19;;;23.00;72.17
3844;BME280;1937;51.444;6.484;2022-07-10T12:49:55;70133.06;;;22.08;71.88
3844;BME280;1937;51.444;6.484;2022-07-10T12:52:26;70220.53;;;22.17;73.80
3844;BME280;1937;51.444;6.484;2022-07-10T12:55:07;70278.00;;;22.43;72.19
3844;BME280;1937;51.444;6.484;2022-07-10T12:57:48;69944.50;;;21.70;71.93
3844;BME280;1937;51.444;6.484;2022-07-10T13:00:20;70079.66;;;22.16;70.83
3844;BME280;1937;51.444;6.484;2022-07-10T13:02:49;70201.34;;;22.65;69.30
3844;BME280;1937;51.444;6.484;2022-07-10T13:05:34;70012.97;;;22.08;70.54
3844;BME280;1937;51.444;6.484;2022-07-10T13:08:08;70006.47;;;22.25;68.93
3844;BME280;1937;51.444;6.484;2022-07-10T13:10:39;70026.75;;;22.31;69.93
3844;BME280;1937;51.444;6.484;2022-07-10T13:13:08;70240.94;;;22.99;67.93
3844;BME280;1937;51.444;6.484;2022-07-10T13:15:37;70062.22;;;22.76;66.47
3844;BME280;1937;51.444;6.484;2022-07-10T13:18:11;70258.88;;;23.32;65.65
3844;BME280;1937;51.444;6.484;2022-07-10T13:20:41;70232.53;;;23.20;66.75
3844;BME280;1937;51.444;6.484;2022-07-10T13:23:09;70244.94;;;23.44;65.44
3844;BME280;1937;51.444;6.484;2022-07-10T13:25:38;69993.31;;;22.76;65.59
3844;BME280;1937;51.444;6.484;2022-07-10T13:28:08;69958.91;;;22.56;67.42
3844;BME280;1937;51.444;6.484;2022-07-10T13:30:39;69922.38;;;22.54;66.57
3844;BME280;1937;51.444;6.484;2022-07-10T13:33:08;69875.59;;;22.27;67.40
3844;BME280;1937;51.444;6.484;2022-07-10T13:35:36;69938.63;;;22.50;67.04
3844;BME280;1937;51.444;6.484;2022-07-10T13:38:06;69893.97;;;22.38;67.23